Jones Prairie, Texas
Current Conditions -  °F | °C
As of 5:15 AM on Thursday 18 Dec 2014 (Local Time) from KT35 Reporting Station
Haze Haze  
Wind Chill: 46°   Ceiling: 300
Heat Index: 48°   Visibility: 0.75mi
Dew Point: 47°   Wind: 5mph
Humidity: 99%   Direction: 40°NE
Pressure: 30.1"   Gusts: NA
Location:  30.8332°N, 96.9826°W
Report Text: KT35 181115Z AUTO 04004KT 3/4SM BR OVC003 09/09 A3010 RMK AO2 T00870085
Loading
Personal Weather Stations






























Interactive Weather Map New forecast layout! Learn more

10-Day Weather Forecast

Advertisements
Track Severe Weather on mobile